createdAt,value
2023-06-10T00:00:08.763Z,100044.16
2023-06-10T00:03:11.014Z,100038.94
2023-06-10T00:06:15.910Z,100034.31
2023-06-10T00:09:18.063Z,100029.94
2023-06-10T00:12:19.896Z,100026.34
2023-06-10T00:15:21.614Z,100029.50
2023-06-10T00:18:23.353Z,100028.91
2023-06-10T00:21:25.102Z,100026.00
2023-06-10T00:24:27.112Z,100028.31
2023-06-10T00:27:28.843Z,100021.44
2023-06-10T00:30:30.505Z,100029.41
2023-06-10T00:33:32.404Z,100026.28
2023-06-10T00:36:34.225Z,100030.72
2023-06-10T00:39:36.026Z,100031.78
2023-06-10T00:42:41.165Z,100025.31
2023-06-10T00:45:43.212Z,100032.88
2023-06-10T00:48:46.389Z,100036.44
2023-06-10T00:51:48.623Z,100037.72
2023-06-10T00:54:50.871Z,100038.31
2023-06-10T00:57:52.705Z,100040.63
2023-06-10T01:00:54.363Z,100043.78
2023-06-10T01:03:56.448Z,100040.87
2023-06-10T01:07:15.863Z,100042.78
2023-06-10T01:10:25.896Z,100043.41
2023-06-10T01:13:30.174Z,100042.19
2023-06-10T01:16:32.317Z,100038.62
2023-06-10T01:19:33.980Z,100037.37
2023-06-10T01:22:35.738Z,100041.53
2023-06-10T01:25:40.831Z,100038.78
2023-06-10T01:28:51.277Z,100035.84
2023-06-10T01:32:01.963Z,100034.19
2023-06-10T01:35:06.124Z,100042.78
2023-06-10T01:38:08.678Z,100045.50
2023-06-10T01:41:15.472Z,100040.69
2023-06-10T01:44:24.687Z,100045.56
2023-06-10T01:47:26.656Z,100038.25
2023-06-10T01:50:29.200Z,100032.81
2023-06-10T01:57:06.513Z,100048.13
2023-06-10T02:00:09.411Z,100048.13
2023-06-10T02:03:11.173Z,100037.47
2023-06-10T02:06:13.168Z,100033.03
2023-06-10T02:09:15.029Z,100035.56
2023-06-10T02:12:18.291Z,100041.63
2023-06-10T02:15:20.433Z,100039.97
2023-06-10T02:18:22.208Z,100037.25
2023-06-10T02:21:23.982Z,100048.78
2023-06-10T02:24:25.654Z,100051.91
2023-06-10T02:27:27.425Z,100052.12
2023-06-10T02:30:29.058Z,100045.22
2023-06-10T02:33:30.755Z,100048.34
2023-06-10T02:36:32.637Z,100040.84
2023-06-10T02:39:34.438Z,100025.75
2023-06-10T02:42:36.109Z,100043.53
2023-06-10T02:45:37.914Z,100045.84
2023-06-10T02:48:44.201Z,100052.94
2023-06-10T02:51:46.248Z,100056.28
2023-06-10T02:54:47.977Z,100051.53
2023-06-10T02:57:49.664Z,100046.69
2023-06-10T03:00:51.325Z,100052.56
2023-06-10T03:03:53.029Z,100050.66
2023-06-10T03:06:54.846Z,100052.34
2023-06-10T03:09:56.556Z,100058.41
2023-06-10T03:12:58.315Z,100060.06
2023-06-10T03:16:00.200Z,100052.97
2023-06-10T03:19:01.958Z,100055.69
2023-06-10T03:22:12.727Z,100059.84
2023-06-10T03:25:14.390Z,100064.47
2023-06-10T03:28:16.106Z,100065.50
2023-06-10T03:31:17.899Z,100069.91
2023-06-10T03:34:19.749Z,100065.91
2023-06-10T03:37:21.476Z,100069.25
2023-06-10T03:40:23.185Z,100062.78
2023-06-10T03:43:24.868Z,100076.56
2023-06-10T03:46:26.974Z,100068.41
2023-06-10T03:49:28.718Z,100062.12
2023-06-10T03:52:31.392Z,100058.97
2023-06-10T03:55:33.076Z,100060.19
2023-06-10T03:58:34.801Z,100056.47
2023-06-10T04:01:36.451Z,100060.41
2023-06-10T04:07:53.881Z,100060.59
2023-06-10T04:10:55.579Z,100059.97
2023-06-10T04:13:57.576Z,100055.59
2023-06-10T04:16:59.803Z,100055.81
2023-06-10T04:20:01.699Z,100054.34
2023-06-10T04:23:03.815Z,100058.75
2023-06-10T04:26:06.015Z,100056.63
2023-06-10T04:29:07.700Z,100062.28
2023-06-10T04:32:09.447Z,100066.25
2023-06-10T04:35:13.426Z,100070.19
2023-06-10T04:38:15.494Z,100059.94
2023-06-10T04:41:17.202Z,100040.28
2023-06-10T04:44:19.397Z,100065.97
2023-06-10T04:47:21.082Z,100065.13
2023-06-10T04:50:22.873Z,100058.44
2023-06-10T04:53:24.524Z,100059.44
2023-06-10T04:56:26.242Z,100059.03
2023-06-10T04:59:28.225Z,100055.50
2023-06-10T05:02:30.345Z,100056.94
2023-06-10T05:05:32.065Z,100056.47
2023-06-10T05:08:34.680Z,100061.91
2023-06-10T05:11:36.349Z,100068.22
2023-06-10T05:14:38.044Z,100062.38
2023-06-10T05:17:40.183Z,100067.66
2023-06-10T05:20:42.498Z,100066.81
2023-06-10T05:23:44.333Z,100070.75
2023-06-10T05:26:46.039Z,100068.03
2023-06-10T05:29:47.800Z,100068.38
2023-06-10T05:32:49.924Z,100072.13
2023-06-10T05:35:51.790Z,100074.56
2023-06-10T05:38:53.546Z,100077.69
2023-06-10T05:41:55.285Z,100079.16
2023-06-10T05:44:57.306Z,100077.22
2023-06-10T05:47:59.031Z,100071.09
2023-06-10T05:51:00.722Z,100077.91
2023-06-10T05:54:02.407Z,100079.53
2023-06-10T05:57:04.350Z,100080.28
2023-06-10T06:00:06.662Z,100081.31
2023-06-10T06:03:08.948Z,100081.47
2023-06-10T06:06:11.155Z,100074.84
2023-06-10T06:09:12.945Z,100086.69
2023-06-10T06:12:14.613Z,100084.91
2023-06-10T06:15:16.277Z,100084.37
2023-06-10T06:18:18.086Z,100084.19
2023-06-10T06:21:19.752Z,100083.75
2023-06-10T06:24:21.936Z,100086.03
2023-06-10T06:27:23.705Z,100084.97
2023-06-10T06:30:25.404Z,100081.41
2023-06-10T06:33:27.079Z,100090.12
2023-06-10T06:36:38.101Z,100097.78
2023-06-10T06:39:39.894Z,100102.59
2023-06-10T06:42:41.590Z,100099.22
2023-06-10T06:45:43.265Z,100092.81
2023-06-10T06:48:45.175Z,100099.16
2023-06-10T06:51:47.193Z,100101.69
2023-06-10T06:54:49.392Z,100100.81
2023-06-10T06:57:51.744Z,100107.78
2023-06-10T07:00:53.489Z,100105.37
2023-06-10T07:03:55.265Z,100111.84
2023-06-10T07:06:57.218Z,100104.56
2023-06-10T07:09:59.130Z,100105.63
2023-06-10T07:13:00.874Z,100104.78
2023-06-10T07:16:05.574Z,100105.81
2023-06-10T07:19:07.197Z,100099.34
2023-06-10T07:22:08.998Z,100106.84
2023-06-10T07:25:11.011Z,100110.75
2023-06-10T07:28:13.037Z,100108.19
2023-06-10T07:31:15.122Z,100106.78
2023-06-10T07:34:16.889Z,100106.34
2023-06-10T07:37:18.587Z,100111.09
2023-06-10T07:40:20.364Z,100111.94
2023-06-10T07:43:22.358Z,100110.22
2023-06-10T07:46:24.916Z,100106.06
2023-06-10T07:49:26.618Z,100106.25
2023-06-10T07:52:28.348Z,100095.50
2023-06-10T07:55:30.286Z,100103.03
2023-06-10T07:58:31.967Z,100113.22
2023-06-10T08:01:33.647Z,100111.34
2023-06-10T08:04:35.382Z,100115.84
2023-06-10T08:07:37.210Z,100114.19
2023-06-10T08:10:39.298Z,100112.13
2023-06-10T08:13:41.376Z,100113.34
2023-06-10T08:16:44.679Z,100106.94
2023-06-10T08:19:49.377Z,100107.88
2023-06-10T08:22:51.153Z,100106.94
2023-06-10T08:25:52.881Z,100104.16
2023-06-10T08:29:03.141Z,100097.03
2023-06-10T08:32:17.101Z,100096.88
2023-06-10T08:35:19.714Z,100090.63
2023-06-10T08:38:21.443Z,100092.56
2023-06-10T08:41:26.317Z,100080.34
2023-06-10T08:44:30.776Z,100081.75
2023-06-10T08:47:36.043Z,100080.09
2023-06-10T08:50:38.914Z,100078.63
2023-06-10T08:53:51.295Z,100083.94
2023-06-10T08:56:56.423Z,100074.28
2023-06-10T08:59:58.785Z,100062.81
2023-06-10T09:03:04.991Z,100057.22
2023-06-10T09:06:07.958Z,100064.06
2023-06-10T09:09:09.854Z,100045.47
2023-06-10T09:12:13.240Z,100044.22
2023-06-10T09:15:15.330Z,100037.16
2023-06-10T09:18:17.025Z,100040.69
2023-06-10T09:21:18.810Z,100038.81
2023-06-10T09:24:23.574Z,100040.84
2023-06-10T09:27:25.617Z,100038.97
2023-06-10T09:30:30.319Z,100026.31
2023-06-10T09:33:32.363Z,100029.31
2023-06-10T09:36:36.252Z,100029.75
2023-06-10T09:39:38.230Z,100026.53
2023-06-10T09:42:40.454Z,100034.53
2023-06-10T09:45:42.561Z,100023.50
2023-06-10T09:48:46.144Z,100035.12
2023-06-10T09:51:52.659Z,100025.19
2023-06-10T09:54:59.608Z,100026.78
2023-06-10T09:58:02.120Z,100037.78
2023-06-10T10:01:12.052Z,100034.31
2023-06-10T10:04:13.787Z,100034.22
2023-06-10T10:07:15.811Z,100032.59
2023-06-10T10:10:19.925Z,100046.06
2023-06-10T10:13:21.935Z,100041.75
2023-06-10T10:16:36.659Z,100036.25
2023-06-10T10:19:47.373Z,100037.13
2023-06-10T10:22:50.984Z,100032.44
2023-06-10T10:25:56.307Z,100031.75
2023-06-10T10:29:13.121Z,100032.44
2023-06-10T10:32:17.207Z,100021.62
2023-06-10T10:35:23.011Z,100021.06
2023-06-10T10:38:25.770Z,100019.53
2023-06-10T10:41:27.935Z,100010.47
2023-06-10T10:44:31.305Z,100001.84
2023-06-10T10:47:35.523Z,100008.16
2023-06-10T10:50:37.330Z,99999.13
2023-06-10T10:53:44.773Z,100002.50
2023-06-10T10:57:09.822Z,100011.28
2023-06-10T11:00:12.335Z,99994.16
2023-06-10T11:03:16.749Z,99991.09
2023-06-10T11:06:19.438Z,99983.91
2023-06-10T11:09:29.777Z,99991.03
2023-06-10T11:12:43.127Z,99987.91
2023-06-10T11:15:48.825Z,99989.81
2023-06-10T11:18:55.102Z,99978.75
2023-06-10T11:22:03.519Z,99971.91
2023-06-10T11:25:15.186Z,99974.50
2023-06-10T11:28:20.389Z,99970.63
2023-06-10T11:31:28.565Z,99969.34
2023-06-10T11:34:30.681Z,99952.25
2023-06-10T11:37:32.596Z,99953.91
2023-06-10T11:40:34.741Z,99962.31
2023-06-10T11:43:37.558Z,99970.72
2023-06-10T11:46:43.014Z,99957.34
2023-06-10T11:49:46.548Z,99950.19
2023-06-10T11:52:49.834Z,99957.13
2023-06-10T11:55:52.232Z,99956.84
2023-06-10T11:58:56.576Z,99958.41
2023-06-10T12:01:58.621Z,99953.03
2023-06-10T12:05:17.406Z,99949.34
2023-06-10T12:08:19.303Z,99948.53
2023-06-10T12:11:21.520Z,99951.38
2023-06-10T12:14:43.454Z,99945.31
2023-06-10T12:17:45.298Z,99943.66
2023-06-10T12:20:47.667Z,99933.69
2023-06-10T12:24:03.555Z,99930.44
2023-06-10T12:27:09.791Z,99930.88
2023-06-10T12:30:11.714Z,99923.44
2023-06-10T12:33:22.068Z,99921.59
2023-06-10T12:36:23.892Z,99911.09
2023-06-10T12:39:26.189Z,99908.87
2023-06-10T12:42:28.607Z,99901.59
2023-06-10T12:45:41.712Z,99901.19
2023-06-10T12:48:52.253Z,99897.59
2023-06-10T12:51:54.523Z,99891.25
2023-06-10T12:54:56.850Z,99892.91
2023-06-10T12:57:58.655Z,99893.13
2023-06-10T13:01:00.473Z,99887.88
2023-06-10T13:04:02.297Z,99886.47
2023-06-10T13:07:08.707Z,99879.97
2023-06-10T13:10:11.151Z,99878.47
2023-06-10T13:13:12.820Z,99882.09
2023-06-10T13:16:14.854Z,99884.38
2023-06-10T13:19:18.591Z,99877.44
2023-06-10T13:22:20.226Z,99866.69
2023-06-10T13:28:37.927Z,99872.75
2023-06-10T13:31:39.929Z,99875.47
2023-06-10T13:34:41.915Z,99879.31
2023-06-10T13:37:43.880Z,99872.03
2023-06-10T13:40:45.942Z,99885.13
2023-06-10T13:43:48.380Z,99883.34
2023-06-10T13:46:50.607Z,99875.16
2023-06-10T13:49:52.462Z,99888.41
2023-06-10T13:52:54.143Z,99882.66
2023-06-10T13:55:55.925Z,99886.00
2023-06-10T13:59:04.167Z,99880.19
2023-06-10T14:02:06.334Z,99887.94
2023-06-10T14:05:08.962Z,99878.87
2023-06-10T14:08:16.106Z,99889.53
2023-06-10T14:11:18.990Z,99889.22
2023-06-10T14:14:21.002Z,99886.75
2023-06-10T14:17:23.889Z,99891.91
2023-06-10T14:20:25.628Z,99885.06
2023-06-10T14:23:27.341Z,99881.00
2023-06-10T14:26:28.978Z,99888.81
2023-06-10T14:29:30.650Z,99879.47
2023-06-10T14:32:32.774Z,99882.38
2023-06-10T14:35:34.640Z,99872.31
2023-06-10T14:38:36.750Z,99878.16
2023-06-10T14:41:38.578Z,99878.47
2023-06-10T14:44:43.440Z,99867.28
2023-06-10T14:47:45.224Z,99875.41
2023-06-10T14:50:47.064Z,99867.78
2023-06-10T14:53:49.010Z,99879.06
2023-06-10T14:56:50.996Z,99874.72
2023-06-10T14:59:52.937Z,99878.56
2023-06-10T15:02:58.144Z,99876.06
2023-06-10T15:06:00.004Z,99881.09
2023-06-10T15:09:05.040Z,99880.81
2023-06-10T15:12:07.134Z,99874.66
2023-06-10T15:15:09.394Z,99875.50
2023-06-10T15:18:11.954Z,99865.00
2023-06-10T15:21:13.966Z,99880.47
2023-06-10T15:24:16.031Z,99882.09
2023-06-10T15:27:19.126Z,99882.53
2023-06-10T15:30:23.919Z,99895.69
2023-06-10T15:33:26.003Z,99895.56
2023-06-10T15:36:28.950Z,99898.22
2023-06-10T15:39:30.666Z,99910.50
2023-06-10T15:42:32.445Z,99903.34
2023-06-10T15:45:35.805Z,99903.31
2023-06-10T15:51:53.343Z,99911.97
2023-06-10T15:54:57.691Z,99913.12
2023-06-10T15:57:59.422Z,99906.28
2023-06-10T16:01:01.817Z,99910.47
2023-06-10T16:04:04.423Z,99915.06
2023-06-10T16:07:06.241Z,99915.81
2023-06-10T16:10:08.211Z,99921.69
2023-06-10T16:13:10.430Z,99919.16
2023-06-10T16:16:16.603Z,99921.62
2023-06-10T16:19:18.901Z,99922.97
2023-06-10T16:22:24.052Z,99915.28
2023-06-10T16:25:26.028Z,99922.66
2023-06-10T16:28:29.341Z,99923.03
2023-06-10T16:31:32.047Z,99924.56
2023-06-10T16:34:34.015Z,99932.03
2023-06-10T16:37:35.757Z,99922.88
2023-06-10T16:40:37.393Z,99922.56
2023-06-10T16:43:39.070Z,99927.34
2023-06-10T16:46:40.683Z,99930.09
2023-06-10T16:49:42.720Z,99925.09
2023-06-10T16:52:45.084Z,99927.59
2023-06-10T16:55:47.186Z,99926.44
2023-06-10T16:58:48.874Z,99932.75
2023-06-10T17:01:50.872Z,99933.66
2023-06-10T17:04:53.012Z,99934.09
2023-06-10T17:07:54.827Z,99919.66
2023-06-10T17:10:56.560Z,99918.00
2023-06-10T17:13:58.648Z,99933.25
2023-06-10T17:17:01.343Z,99933.66
2023-06-10T17:20:03.516Z,99940.78
2023-06-10T17:23:06.453Z,99943.06
2023-06-10T17:26:08.094Z,99938.56
2023-06-10T17:29:12.268Z,99954.50
2023-06-10T17:32:16.600Z,99965.72
2023-06-10T17:35:19.332Z,99965.38
2023-06-10T17:38:21.335Z,99972.78
2023-06-10T17:41:23.039Z,99970.84
2023-06-10T17:44:25.531Z,99971.09
2023-06-10T17:47:30.595Z,99974.09
2023-06-10T17:50:32.369Z,99971.81
2023-06-10T17:53:34.230Z,99974.22
2023-06-10T17:56:36.069Z,99977.22
2023-06-10T17:59:37.736Z,99974.12
2023-06-10T18:02:39.801Z,99980.19
2023-06-10T18:09:01.240Z,99987.22
2023-06-10T18:12:04.317Z,99976.19
2023-06-10T18:15:06.876Z,99981.28
2023-06-10T18:18:09.039Z,99986.44
2023-06-10T18:21:12.110Z,99969.66
2023-06-10T18:24:16.065Z,99974.78
2023-06-10T18:27:28.262Z,99971.91
2023-06-10T18:30:29.925Z,99963.56
2023-06-10T18:33:32.863Z,99966.81
2023-06-10T18:36:34.653Z,99968.97
2023-06-10T18:39:36.545Z,99973.22
2023-06-10T18:42:38.477Z,99986.69
2023-06-10T18:45:43.720Z,99981.94
2023-06-10T18:48:49.610Z,99982.19
2023-06-10T18:51:51.287Z,99987.41
2023-06-10T18:54:53.250Z,99987.41
2023-06-10T18:57:55.010Z,99996.22
2023-06-10T19:00:56.708Z,100001.69
2023-06-10T19:03:58.530Z,100003.59
2023-06-10T19:07:00.295Z,100012.38
2023-06-10T19:10:02.645Z,100013.72
2023-06-10T19:13:04.776Z,100008.47
2023-06-10T19:16:07.044Z,100008.22
2023-06-10T19:19:08.752Z,100010.97
2023-06-10T19:22:12.043Z,100004.31
2023-06-10T19:25:14.026Z,100009.44
2023-06-10T19:28:17.183Z,100004.19
2023-06-10T19:31:19.106Z,99996.47
2023-06-10T19:34:21.188Z,100008.12
2023-06-10T19:37:23.243Z,100005.12
2023-06-10T19:40:25.027Z,100008.12
2023-06-10T19:43:26.707Z,100011.94
2023-06-10T19:46:28.475Z,100012.16
2023-06-10T19:49:30.470Z,100014.56
2023-06-10T19:52:32.955Z,100014.81
2023-06-10T19:55:37.460Z,100018.72
2023-06-10T19:58:40.281Z,100024.44
2023-06-10T20:01:42.681Z,100021.56
2023-06-10T20:04:44.726Z,100028.59
2023-06-10T20:07:46.766Z,100026.09
2023-06-10T20:10:48.725Z,100026.19
2023-06-10T20:13:50.564Z,100029.84
2023-06-10T20:16:52.698Z,100027.91
2023-06-10T20:19:54.690Z,100032.88
2023-06-10T20:22:56.407Z,100045.03
2023-06-10T20:25:58.249Z,100044.28
2023-06-10T20:29:01.177Z,100036.09
2023-06-10T20:32:03.063Z,100042.25
2023-06-10T20:35:06.044Z,100043.19
2023-06-10T20:38:08.081Z,100033.19
2023-06-10T20:41:10.141Z,100034.25
2023-06-10T20:44:12.021Z,100023.47
2023-06-10T20:47:13.717Z,100035.81
2023-06-10T20:50:15.632Z,100033.91
2023-06-10T20:53:17.697Z,100038.31
2023-06-10T20:56:19.894Z,100032.50
2023-06-10T20:59:21.653Z,100029.69
2023-06-10T21:02:23.380Z,100034.13
2023-06-10T21:05:26.426Z,100027.91
2023-06-10T21:08:28.660Z,100023.87
2023-06-10T21:11:30.902Z,100020.91
2023-06-10T21:14:33.916Z,100020.91
2023-06-10T21:17:36.004Z,100024.03
2023-06-10T21:20:38.894Z,100024.84
2023-06-10T21:23:41.518Z,100021.41
2023-06-10T21:26:43.542Z,100027.13
2023-06-10T21:29:46.016Z,100034.25
2023-06-10T21:32:48.842Z,100036.06
2023-06-10T21:35:50.740Z,100032.50
2023-06-10T21:38:52.444Z,100032.25
2023-06-10T21:41:54.477Z,100039.63
2023-06-10T21:44:56.516Z,100041.13
2023-06-10T21:47:59.333Z,100042.59
2023-06-10T21:51:03.446Z,100036.28
2023-06-10T21:54:05.561Z,100041.38
2023-06-10T21:57:07.557Z,100039.47
2023-06-10T22:00:10.273Z,100038.03
2023-06-10T22:03:13.412Z,100039.19
2023-06-10T22:06:16.712Z,100024.78
2023-06-10T22:09:22.032Z,100030.34
2023-06-10T22:12:24.185Z,100028.06
2023-06-10T22:15:27.239Z,100036.13
2023-06-10T22:18:28.930Z,100025.69
2023-06-10T22:21:31.633Z,100031.75
2023-06-10T22:24:34.118Z,100038.88
2023-06-10T22:27:36.458Z,100034.00
2023-06-10T22:30:38.349Z,100038.16
2023-06-10T22:33:40.019Z,100034.59
2023-06-10T22:36:41.758Z,100032.50
2023-06-10T22:39:43.462Z,100036.75
2023-06-10T22:42:45.241Z,100030.69
2023-06-10T22:45:47.058Z,100042.06
2023-06-10T22:48:50.031Z,100044.56
2023-06-10T22:51:51.749Z,100023.25
2023-06-10T22:54:53.585Z,100042.78
2023-06-10T22:57:55.465Z,100046.38
2023-06-10T23:00:57.394Z,100043.87
2023-06-10T23:03:59.276Z,100044.34
2023-06-10T23:07:02.281Z,100042.06
2023-06-10T23:10:04.289Z,100042.38
2023-06-10T23:13:06.092Z,100044.03
2023-06-10T23:16:08.096Z,100043.44
2023-06-10T23:19:09.869Z,100043.44
2023-06-10T23:22:11.613Z,100035.94
2023-06-10T23:25:13.584Z,100029.69
2023-06-10T23:28:18.135Z,100039.69
2023-06-10T23:31:19.822Z,100032.19
2023-06-10T23:34:22.039Z,100027.56
2023-06-10T23:37:23.813Z,100023.37
2023-06-10T23:40:25.548Z,100028.41
2023-06-10T23:43:27.250Z,100018.31
2023-06-10T23:46:29.507Z,100011.53
2023-06-10T23:49:31.542Z,100017.00
2023-06-10T23:52:33.458Z,100015.81
2023-06-10T23:55:35.591Z,100017.47
2023-06-10T23:58:37.391Z,100009.28
